sensor_id;sensor_type;location;lat;lon;timestamp;pressure;altitude;pressure_sealevel;temperature;humidity
71306;BME280;59097;46.858;18.632;2022-11-15T00:02:38;100928.37;;;5.67;100.00
71306;BME280;59097;46.858;18.632;2022-11-15T00:05:24;100926.72;;;5.66;100.00
71306;BME280;59097;46.858;18.632;2022-11-15T00:08:11;100917.03;;;5.66;100.00
71306;BME280;59097;46.858;18.632;2022-11-15T00:11:12;100917.31;;;5.63;100.00
71306;BME280;59097;46.858;18.632;2022-11-15T00:13:58;100917.75;;;5.59;100.00
71306;BME280;59097;46.858;18.632;2022-11-15T00:16:42;100920.09;;;5.62;100.00
71306;BME280;59097;46.858;18.632;2022-11-15T00:19:28;100907.50;;;5.56;100.00
71306;BME280;59097;46.858;18.632;2022-11-15T00:22:13;100914.44;;;5.57;100.00
71306;BME280;59097;46.858;18.632;2022-11-15T00:24:45;100917.66;;;6.32;100.00
71306;BME280;59097;46.858;18.632;2022-11-15T00:27:31;100917.66;;;6.32;100.00
71306;BME280;59097;46.858;18.632;2022-11-15T00:30:18;100922.03;;;5.60;100.00
71306;BME280;59097;46.858;18.632;2022-11-15T00:33:06;100919.25;;;5.61;100.00
71306;BME280;59097;46.858;18.632;2022-11-15T00:35:52;100918.87;;;5.56;100.00
71306;BME280;59097;46.858;18.632;2022-11-15T00:38:39;100913.84;;;5.63;100.00
71306;BME280;59097;46.858;18.632;2022-11-15T00:41:26;100908.47;;;5.64;100.00
71306;BME280;59097;46.858;18.632;2022-11-15T00:44:12;100898.59;;;5.66;100.00
71306;BME280;59097;46.858;18.632;2022-11-15T00:47:13;100894.59;;;5.62;100.00
71306;BME280;59097;46.858;18.632;2022-11-15T00:49:58;100891.56;;;5.67;100.00
71306;BME280;59097;46.858;18.632;2022-11-15T00:52:44;100898.06;;;5.63;100.00
71306;BME280;59097;46.858;18.632;2022-11-15T00:55:29;100884.22;;;5.61;100.00
71306;BME280;59097;46.858;18.632;2022-11-15T00:58:14;100893.91;;;5.60;100.00
71306;BME280;59097;46.858;18.632;2022-11-15T01:01:10;100898.75;;;5.65;100.00
71306;BME280;59097;46.858;18.632;2022-11-15T01:03:45;100888.75;;;5.68;100.00
71306;BME280;59097;46.858;18.632;2022-11-15T01:06:32;100879.66;;;5.63;100.00
71306;BME280;59097;46.858;18.632;2022-11-15T01:09:18;100885.91;;;5.52;100.00
71306;BME280;59097;46.858;18.632;2022-11-15T01:12:05;100883.56;;;5.49;100.00
71306;BME280;59097;46.858;18.632;2022-11-15T01:14:51;100879.81;;;5.61;100.00
71306;BME280;59097;46.858;18.632;2022-11-15T01:17:37;100872.03;;;5.60;100.00
71306;BME280;59097;46.858;18.632;2022-11-15T01:20:24;100869.56;;;5.58;100.00
71306;BME280;59097;46.858;18.632;2022-11-15T01:23:10;100867.37;;;5.54;100.00
71306;BME280;59097;46.858;18.632;2022-11-15T01:26:22;100855.62;;;5.48;100.00
71306;BME280;59097;46.858;18.632;2022-11-15T01:29:06;100848.56;;;5.49;100.00
71306;BME280;59097;46.858;18.632;2022-11-15T01:31:53;100848.41;;;5.50;100.00
71306;BME280;59097;46.858;18.632;2022-11-15T01:34:38;100848.84;;;5.46;100.00
71306;BME280;59097;46.858;18.632;2022-11-15T01:37:23;100847.19;;;5.45;100.00
71306;BME280;59097;46.858;18.632;2022-11-15T01:40:09;100848.97;;;5.54;100.00
71306;BME280;59097;46.858;18.632;2022-11-15T01:42:41;100853.44;;;6.16;100.00
71306;BME280;59097;46.858;18.632;2022-11-15T01:45:28;100853.44;;;6.16;100.00
71306;BME280;59097;46.858;18.632;2022-11-15T01:48:14;100840.37;;;5.52;100.00
71306;BME280;59097;46.858;18.632;2022-11-15T01:51:07;100844.53;;;5.54;100.00
71306;BME280;59097;46.858;18.632;2022-11-15T01:54:01;100836.94;;;5.42;100.00
71306;BME280;59097;46.858;18.632;2022-11-15T01:56:53;100843.16;;;5.23;100.00
71306;BME280;59097;46.858;18.632;2022-11-15T01:59:43;100850.31;;;5.31;100.00
71306;BME280;59097;46.858;18.632;2022-11-15T02:02:32;100827.31;;;5.33;100.00
71306;BME280;59097;46.858;18.632;2022-11-15T02:05:33;100821.03;;;5.43;100.00
71306;BME280;59097;46.858;18.632;2022-11-15T02:08:19;100812.16;;;5.44;100.00
71306;BME280;59097;46.858;18.632;2022-11-15T02:11:08;100820.88;;;5.45;100.00
71306;BME280;59097;46.858;18.632;2022-11-15T02:13:54;100818.84;;;5.39;100.00
71306;BME280;59097;46.858;18.632;2022-11-15T02:23:10;100801.59;;;5.99;100.00
71306;BME280;59097;46.858;18.632;2022-11-15T02:29:07;100808.12;;;5.23;100.00
71306;BME280;59097;46.858;18.632;2022-11-15T02:32:18;100810.03;;;5.30;100.00
71306;BME280;59097;46.858;18.632;2022-11-15T02:38:34;100807.94;;;5.34;100.00
71306;BME280;59097;46.858;18.632;2022-11-15T02:42:32;100800.28;;;5.40;100.00
71306;BME280;59097;46.858;18.632;2022-11-15T02:45:40;100814.44;;;5.02;100.00
71306;BME280;59097;46.858;18.632;2022-11-15T02:48:26;100827.47;;;5.31;100.00
71306;BME280;59097;46.858;18.632;2022-11-15T02:51:12;100819.66;;;5.39;100.00
71306;BME280;59097;46.858;18.632;2022-11-15T02:53:58;100811.19;;;5.45;100.00
71306;BME280;59097;46.858;18.632;2022-11-15T02:56:30;100792.41;;;5.85;100.00
71306;BME280;59097;46.858;18.632;2022-11-15T03:02:40;100807.25;;;5.32;100.00
71306;BME280;59097;46.858;18.632;2022-11-15T03:05:47;100799.00;;;5.44;100.00
71306;BME280;59097;46.858;18.632;2022-11-15T03:08:50;100784.06;;;5.45;100.00
71306;BME280;59097;46.858;18.632;2022-11-15T03:11:46;100784.91;;;5.45;100.00
71306;BME280;59097;46.858;18.632;2022-11-15T03:14:42;100782.03;;;5.39;100.00
71306;BME280;59097;46.858;18.632;2022-11-15T03:18:04;100778.81;;;5.45;100.00
71306;BME280;59097;46.858;18.632;2022-11-15T03:20:52;100777.38;;;5.50;100.00
71306;BME280;59097;46.858;18.632;2022-11-15T03:23:39;100770.00;;;5.36;100.00
71306;BME280;59097;46.858;18.632;2022-11-15T03:26:25;100775.34;;;5.44;100.00
71306;BME280;59097;46.858;18.632;2022-11-15T03:29:15;100761.63;;;5.95;100.00
71306;BME280;59097;46.858;18.632;2022-11-15T03:32:10;100761.63;;;5.95;100.00
71306;BME280;59097;46.858;18.632;2022-11-15T03:35:02;100768.34;;;5.35;100.00
71306;BME280;59097;46.858;18.632;2022-11-15T03:38:08;100759.91;;;5.32;100.00
71306;BME280;59097;46.858;18.632;2022-11-15T03:41:04;100759.00;;;5.23;100.00
71306;BME280;59097;46.858;18.632;2022-11-15T03:44:04;100764.25;;;5.23;100.00
71306;BME280;59097;46.858;18.632;2022-11-15T03:47:27;100759.22;;;5.30;100.00
71306;BME280;59097;46.858;18.632;2022-11-15T03:50:17;100757.28;;;5.32;100.00
71306;BME280;59097;46.858;18.632;2022-11-15T03:53:03;100757.00;;;5.35;100.00
71306;BME280;59097;46.858;18.632;2022-11-15T03:55:48;100753.91;;;5.39;100.00
71306;BME280;59097;46.858;18.632;2022-11-15T03:58:33;100725.22;;;5.28;100.00
71306;BME280;59097;46.858;18.632;2022-11-15T04:01:18;100742.56;;;5.21;100.00
71306;BME280;59097;46.858;18.632;2022-11-15T04:04:03;100760.84;;;5.40;100.00
71306;BME280;59097;46.858;18.632;2022-11-15T04:06:54;100751.12;;;6.21;100.00
71306;BME280;59097;46.858;18.632;2022-11-15T04:09:41;100751.12;;;6.21;100.00
71306;BME280;59097;46.858;18.632;2022-11-15T04:12:47;100751.75;;;5.52;100.00
71306;BME280;59097;46.858;18.632;2022-11-15T04:15:33;100744.41;;;5.56;100.00
71306;BME280;59097;46.858;18.632;2022-11-15T04:18:20;100744.12;;;5.59;100.00
71306;BME280;59097;46.858;18.632;2022-11-15T04:21:07;100746.28;;;5.63;100.00
71306;BME280;59097;46.858;18.632;2022-11-15T04:24:13;100747.97;;;5.37;100.00
71306;BME280;59097;46.858;18.632;2022-11-15T04:27:14;100754.84;;;5.48;100.00
71306;BME280;59097;46.858;18.632;2022-11-15T04:29:59;100754.56;;;5.51;100.00
71306;BME280;59097;46.858;18.632;2022-11-15T04:32:44;100747.81;;;5.66;100.00
71306;BME280;59097;46.858;18.632;2022-11-15T04:35:29;100751.47;;;5.73;100.00
71306;BME280;59097;46.858;18.632;2022-11-15T04:38:14;100750.13;;;5.69;100.00
71306;BME280;59097;46.858;18.632;2022-11-15T04:41:00;100743.84;;;5.80;100.00
71306;BME280;59097;46.858;18.632;2022-11-15T04:43:32;100734.84;;;6.43;100.00
71306;BME280;59097;46.858;18.632;2022-11-15T04:46:19;100734.84;;;6.43;100.00
71306;BME280;59097;46.858;18.632;2022-11-15T04:49:05;100733.16;;;5.81;100.00
71306;BME280;59097;46.858;18.632;2022-11-15T04:51:53;100729.69;;;5.81;100.00
71306;BME280;59097;46.858;18.632;2022-11-15T04:54:47;100727.50;;;5.76;100.00
71306;BME280;59097;46.858;18.632;2022-11-15T04:57:33;100732.78;;;5.76;100.00
71306;BME280;59097;46.858;18.632;2022-11-15T05:00:20;100725.84;;;5.75;100.00
71306;BME280;59097;46.858;18.632;2022-11-15T05:03:17;100725.78;;;5.67;100.00
71306;BME280;59097;46.858;18.632;2022-11-15T05:06:36;100711.63;;;5.68;100.00
71306;BME280;59097;46.858;18.632;2022-11-15T05:09:21;100710.12;;;5.65;100.00
71306;BME280;59097;46.858;18.632;2022-11-15T05:12:07;100708.72;;;5.71;100.00
71306;BME280;59097;46.858;18.632;2022-11-15T05:14:52;100709.31;;;5.65;100.00
71306;BME280;59097;46.858;18.632;2022-11-15T05:17:37;100717.56;;;5.70;100.00
71306;BME280;59097;46.858;18.632;2022-11-15T05:20:22;100712.63;;;5.67;100.00
71306;BME280;59097;46.858;18.632;2022-11-15T05:22:54;100711.00;;;6.27;100.00
71306;BME280;59097;46.858;18.632;2022-11-15T05:25:42;100711.00;;;6.27;100.00
71306;BME280;59097;46.858;18.632;2022-11-15T05:28:29;100707.59;;;5.56;100.00
71306;BME280;59097;46.858;18.632;2022-11-15T05:31:16;100718.31;;;5.62;100.00
71306;BME280;59097;46.858;18.632;2022-11-15T05:34:04;100711.63;;;5.68;100.00
71306;BME280;59097;46.858;18.632;2022-11-15T05:36:51;100713.31;;;5.69;100.00
71306;BME280;59097;46.858;18.632;2022-11-15T05:39:37;100707.75;;;5.72;100.00
71306;BME280;59097;46.858;18.632;2022-11-15T05:42:25;100712.75;;;5.65;100.00
71306;BME280;59097;46.858;18.632;2022-11-15T05:45:26;100709.84;;;5.68;100.00
71306;BME280;59097;46.858;18.632;2022-11-15T05:48:11;100716.22;;;5.66;100.00
71306;BME280;59097;46.858;18.632;2022-11-15T05:50:56;100716.31;;;5.74;100.00
71306;BME280;59097;46.858;18.632;2022-11-15T05:53:42;100710.75;;;5.77;100.00
71306;BME280;59097;46.858;18.632;2022-11-15T05:56:15;100712.56;;;6.38;100.00
71306;BME280;59097;46.858;18.632;2022-11-15T05:59:02;100712.56;;;6.38;100.00
71306;BME280;59097;46.858;18.632;2022-11-15T06:01:49;100710.59;;;5.79;100.00
71306;BME280;59097;46.858;18.632;2022-11-15T06:04:35;100715.00;;;5.78;100.00
71306;BME280;59097;46.858;18.632;2022-11-15T06:07:21;100724.03;;;5.58;100.00
71306;BME280;59097;46.858;18.632;2022-11-15T06:10:09;100708.13;;;5.77;100.00
71306;BME280;59097;46.858;18.632;2022-11-15T06:13:00;100717.19;;;5.65;100.00
71306;BME280;59097;46.858;18.632;2022-11-15T06:15:47;100720.28;;;5.60;100.00
71306;BME280;59097;46.858;18.632;2022-11-15T06:18:33;100720.56;;;5.40;100.00
71306;BME280;59097;46.858;18.632;2022-11-15T06:21:19;100722.59;;;5.46;100.00
71306;BME280;59097;46.858;18.632;2022-11-15T06:24:04;100732.13;;;5.47;100.00
71306;BME280;59097;46.858;18.632;2022-11-15T06:27:05;100731.63;;;5.61;100.00
71306;BME280;59097;46.858;18.632;2022-11-15T06:29:52;100723.22;;;5.75;100.00
71306;BME280;59097;46.858;18.632;2022-11-15T06:33:03;100715.37;;;5.83;100.00
71306;BME280;59097;46.858;18.632;2022-11-15T06:35:50;100724.78;;;5.68;100.00
71306;BME280;59097;46.858;18.632;2022-11-15T06:38:36;100727.31;;;5.87;100.00
71306;BME280;59097;46.858;18.632;2022-11-15T06:41:23;100713.69;;;5.92;100.00
71306;BME280;59097;46.858;18.632;2022-11-15T06:44:20;100724.50;;;5.71;100.00
71306;BME280;59097;46.858;18.632;2022-11-15T06:47:06;100724.87;;;5.58;100.00
71306;BME280;59097;46.858;18.632;2022-11-15T06:49:55;100733.25;;;5.89;100.00
71306;BME280;59097;46.858;18.632;2022-11-15T06:52:42;100724.75;;;5.95;100.00
71306;BME280;59097;46.858;18.632;2022-11-15T06:55:28;100695.16;;;5.84;100.00
71306;BME280;59097;46.858;18.632;2022-11-15T06:58:16;100714.38;;;5.94;100.00
71306;BME280;59097;46.858;18.632;2022-11-15T07:01:11;100713.69;;;5.74;100.00
71306;BME280;59097;46.858;18.632;2022-11-15T07:03:58;100718.56;;;6.04;100.00
71306;BME280;59097;46.858;18.632;2022-11-15T07:06:48;100718.37;;;5.98;100.00
71306;BME280;59097;46.858;18.632;2022-11-15T07:09:36;100709.59;;;6.15;100.00
71306;BME280;59097;46.858;18.632;2022-11-15T07:12:35;100697.16;;;5.99;100.00
71306;BME280;59097;46.858;18.632;2022-11-15T07:15:24;100712.91;;;6.17;100.00
71306;BME280;59097;46.858;18.632;2022-11-15T07:18:11;100727.88;;;6.16;100.00
71306;BME280;59097;46.858;18.632;2022-11-15T07:21:10;100722.41;;;5.75;100.00
71306;BME280;59097;46.858;18.632;2022-11-15T07:23:56;100708.25;;;5.76;100.00
71306;BME280;59097;46.858;18.632;2022-11-15T07:26:41;100703.75;;;5.68;100.00
71306;BME280;59097;46.858;18.632;2022-11-15T07:29:26;100703.75;;;5.86;100.00
71306;BME280;59097;46.858;18.632;2022-11-15T07:32:11;100710.44;;;6.15;100.00
71306;BME280;59097;46.858;18.632;2022-11-15T07:34:57;100693.59;;;5.91;100.00
71306;BME280;59097;46.858;18.632;2022-11-15T07:37:43;100695.69;;;6.22;100.00
71306;BME280;59097;46.858;18.632;2022-11-15T07:40:31;100703.00;;;5.93;100.00
71306;BME280;59097;46.858;18.632;2022-11-15T07:43:17;100690.19;;;5.90;100.00
71306;BME280;59097;46.858;18.632;2022-11-15T07:46:05;100694.28;;;6.10;100.00
71306;BME280;59097;46.858;18.632;2022-11-15T07:48:53;100699.25;;;5.96;100.00
71306;BME280;59097;46.858;18.632;2022-11-15T07:51:40;100690.06;;;5.82;100.00
71306;BME280;59097;46.858;18.632;2022-11-15T07:54:26;100697.50;;;6.04;100.00
71306;BME280;59097;46.858;18.632;2022-11-15T07:57:13;100697.87;;;6.09;100.00
71306;BME280;59097;46.858;18.632;2022-11-15T07:59:59;100695.97;;;6.19;100.00
71306;BME280;59097;46.858;18.632;2022-11-15T08:02:46;100692.44;;;6.28;100.00
71306;BME280;59097;46.858;18.632;2022-11-15T08:05:33;100682.94;;;6.36;100.00
71306;BME280;59097;46.858;18.632;2022-11-15T08:08:21;100682.75;;;6.37;100.00
71306;BME280;59097;46.858;18.632;2022-11-15T08:11:08;100669.22;;;6.32;100.00
71306;BME280;59097;46.858;18.632;2022-11-15T08:13:55;100663.97;;;6.32;100.00
71306;BME280;59097;46.858;18.632;2022-11-15T08:16:41;100673.06;;;6.38;100.00
71306;BME280;59097;46.858;18.632;2022-11-15T08:19:40;100669.53;;;6.03;100.00
71306;BME280;59097;46.858;18.632;2022-11-15T08:22:33;100657.56;;;6.34;100.00
71306;BME280;59097;46.858;18.632;2022-11-15T08:25:18;100656.28;;;6.47;100.00
71306;BME280;59097;46.858;18.632;2022-11-15T08:28:18;100654.13;;;6.42;100.00
71306;BME280;59097;46.858;18.632;2022-11-15T08:31:35;100656.84;;;6.24;100.00
71306;BME280;59097;46.858;18.632;2022-11-15T08:34:20;100650.75;;;6.24;100.00
71306;BME280;59097;46.858;18.632;2022-11-15T08:37:06;100656.59;;;6.36;100.00
71306;BME280;59097;46.858;18.632;2022-11-15T08:39:51;100648.31;;;6.30;100.00
71306;BME280;59097;46.858;18.632;2022-11-15T08:42:23;100649.69;;;6.43;100.00
71306;BME280;59097;46.858;18.632;2022-11-15T08:45:10;100664.19;;;6.47;100.00
71306;BME280;59097;46.858;18.632;2022-11-15T08:47:57;100664.78;;;6.32;100.00
71306;BME280;59097;46.858;18.632;2022-11-15T08:50:43;100663.66;;;6.35;100.00
71306;BME280;59097;46.858;18.632;2022-11-15T08:53:29;100659.53;;;6.32;100.00
71306;BME280;59097;46.858;18.632;2022-11-15T08:56:16;100642.41;;;6.70;100.00
71306;BME280;59097;46.858;18.632;2022-11-15T08:59:02;100640.47;;;6.80;100.00
71306;BME280;59097;46.858;18.632;2022-11-15T09:01:49;100651.94;;;6.63;100.00
71306;BME280;59097;46.858;18.632;2022-11-15T09:04:35;100657.91;;;6.40;100.00
71306;BME280;59097;46.858;18.632;2022-11-15T09:07:22;100629.19;;;6.20;100.00
71306;BME280;59097;46.858;18.632;2022-11-15T09:10:09;100650.84;;;6.14;100.00
71306;BME280;59097;46.858;18.632;2022-11-15T09:12:58;100651.94;;;6.29;100.00
71306;BME280;59097;46.858;18.632;2022-11-15T09:15:45;100655.41;;;6.30;100.00
71306;BME280;59097;46.858;18.632;2022-11-15T09:18:32;100651.56;;;6.24;100.00
71306;BME280;59097;46.858;18.632;2022-11-15T09:21:19;100639.19;;;6.17;100.00
71306;BME280;59097;46.858;18.632;2022-11-15T09:24:04;100649.25;;;6.21;100.00
71306;BME280;59097;46.858;18.632;2022-11-15T09:27:06;100659.72;;;6.39;100.00
71306;BME280;59097;46.858;18.632;2022-11-15T09:29:53;100650.06;;;6.48;100.00
71306;BME280;59097;46.858;18.632;2022-11-15T09:32:40;100646.94;;;6.52;100.00
71306;BME280;59097;46.858;18.632;2022-11-15T09:35:26;100648.69;;;6.36;100.00
71306;BME280;59097;46.858;18.632;2022-11-15T09:38:13;100641.28;;;6.39;100.00
71306;BME280;59097;46.858;18.632;2022-11-15T09:41:31;100642.34;;;6.54;100.00
71306;BME280;59097;46.858;18.632;2022-11-15T09:44:45;100642.31;;;6.46;100.00
71306;BME280;59097;46.858;18.632;2022-11-15T09:47:49;100638.91;;;6.54;100.00
71306;BME280;59097;46.858;18.632;2022-11-15T09:50:40;100629.03;;;6.56;100.00
71306;BME280;59097;46.858;18.632;2022-11-15T09:53:25;100629.94;;;6.47;100.00
71306;BME280;59097;46.858;18.632;2022-11-15T09:56:22;100622.44;;;6.60;100.00
71306;BME280;59097;46.858;18.632;2022-11-15T10:05:06;100628.47;;;6.44;100.00
71306;BME280;59097;46.858;18.632;2022-11-15T10:13:45;100586.94;;;6.72;100.00
71306;BME280;59097;46.858;18.632;2022-11-15T10:16:30;100594.81;;;6.64;100.00
71306;BME280;59097;46.858;18.632;2022-11-15T10:19:31;100580.53;;;6.90;100.00
71306;BME280;59097;46.858;18.632;2022-11-15T10:24:52;100585.59;;;6.68;100.00
71306;BME280;59097;46.858;18.632;2022-11-15T10:27:26;100595.28;;;6.67;100.00
71306;BME280;59097;46.858;18.632;2022-11-15T10:29:54;100599.31;;;6.79;100.00
71306;BME280;59097;46.858;18.632;2022-11-15T10:32:22;100589.78;;;6.94;100.00
71306;BME280;59097;46.858;18.632;2022-11-15T10:34:56;100586.28;;;6.78;100.00
71306;BME280;59097;46.858;18.632;2022-11-15T10:37:29;100574.47;;;6.98;100.00
71306;BME280;59097;46.858;18.632;2022-11-15T10:40:05;100574.53;;;7.38;100.00
71306;BME280;59097;46.858;18.632;2022-11-15T10:42:34;100570.56;;;7.58;100.00
71306;BME280;59097;46.858;18.632;2022-11-15T10:45:23;100563.63;;;7.57;100.00
71306;BME280;59097;46.858;18.632;2022-11-15T10:47:51;100576.00;;;7.49;100.00
71306;BME280;59097;46.858;18.632;2022-11-15T10:50:30;100575.81;;;7.26;100.00
71306;BME280;59097;46.858;18.632;2022-11-15T10:52:58;100566.75;;;7.37;100.00
71306;BME280;59097;46.858;18.632;2022-11-15T10:55:31;100544.50;;;7.47;100.00
71306;BME280;59097;46.858;18.632;2022-11-15T10:58:22;100557.69;;;7.64;100.00
71306;BME280;59097;46.858;18.632;2022-11-15T11:01:26;100546.63;;;7.52;100.00
71306;BME280;59097;46.858;18.632;2022-11-15T11:04:25;100543.53;;;7.32;100.00
71306;BME280;59097;46.858;18.632;2022-11-15T11:07:20;100528.03;;;7.37;100.00
71306;BME280;59097;46.858;18.632;2022-11-15T11:10:20;100524.87;;;7.02;100.00
71306;BME280;59097;46.858;18.632;2022-11-15T11:12:46;100517.47;;;7.45;100.00
71306;BME280;59097;46.858;18.632;2022-11-15T11:15:15;100503.25;;;7.54;100.00
71306;BME280;59097;46.858;18.632;2022-11-15T11:18:05;100499.28;;;7.67;100.00
71306;BME280;59097;46.858;18.632;2022-11-15T11:20:51;100503.53;;;7.92;100.00
71306;BME280;59097;46.858;18.632;2022-11-15T11:23:54;100503.53;;;7.92;100.00
71306;BME280;59097;46.858;18.632;2022-11-15T11:26:40;100502.28;;;7.39;100.00
71306;BME280;59097;46.858;18.632;2022-11-15T11:35:30;100525.03;;;7.56;100.00
71306;BME280;59097;46.858;18.632;2022-11-15T11:49:12;100474.59;;;7.43;100.00
71306;BME280;59097;46.858;18.632;2022-11-15T11:52:04;100488.72;;;7.67;100.00
71306;BME280;59097;46.858;18.632;2022-11-15T12:00:24;100470.28;;;8.44;100.00
71306;BME280;59097;46.858;18.632;2022-11-15T12:03:19;100460.22;;;8.09;100.00
71306;BME280;59097;46.858;18.632;2022-11-15T12:05:54;100458.69;;;7.76;100.00
71306;BME280;59097;46.858;18.632;2022-11-15T12:13:48;100443.50;;;8.16;100.00
71306;BME280;59097;46.858;18.632;2022-11-15T12:16:37;100429.41;;;8.24;100.00
71306;BME280;59097;46.858;18.632;2022-11-15T12:19:07;100444.91;;;7.96;100.00
71306;BME280;59097;46.858;18.632;2022-11-15T12:21:39;100438.28;;;8.00;100.00
71306;BME280;59097;46.858;18.632;2022-11-15T12:24:24;100430.25;;;8.24;100.00
71306;BME280;59097;46.858;18.632;2022-11-15T12:27:08;100424.56;;;8.05;100.00
71306;BME280;59097;46.858;18.632;2022-11-15T12:29:49;100437.13;;;8.03;100.00
71306;BME280;59097;46.858;18.632;2022-11-15T12:32:33;100429.91;;;7.97;100.00
71306;BME280;59097;46.858;18.632;2022-11-15T12:35:06;100423.00;;;8.18;100.00
71306;BME280;59097;46.858;18.632;2022-11-15T12:37:53;100418.81;;;8.40;100.00
71306;BME280;59097;46.858;18.632;2022-11-15T12:41:14;100415.84;;;8.35;100.00
71306;BME280;59097;46.858;18.632;2022-11-15T12:43:42;100399.41;;;8.48;100.00
71306;BME280;59097;46.858;18.632;2022-11-15T12:49:41;100403.97;;;8.23;100.00
71306;BME280;59097;46.858;18.632;2022-11-15T12:52:11;100391.19;;;8.12;100.00
71306;BME280;59097;46.858;18.632;2022-11-15T12:55:31;100378.12;;;8.10;100.00
71306;BME280;59097;46.858;18.632;2022-11-15T12:58:41;100381.38;;;7.90;100.00
71306;BME280;59097;46.858;18.632;2022-11-15T13:04:12;100377.62;;;7.84;100.00
71306;BME280;59097;46.858;18.632;2022-11-15T13:12:07;100355.44;;;8.01;100.00
71306;BME280;59097;46.858;18.632;2022-11-15T13:14:43;100358.13;;;8.47;100.00
71306;BME280;59097;46.858;18.632;2022-11-15T13:17:32;100354.66;;;8.15;100.00
71306;BME280;59097;46.858;18.632;2022-11-15T13:22:47;100346.97;;;8.06;100.00
71306;BME280;59097;46.858;18.632;2022-11-15T13:28:21;100346.53;;;8.25;100.00
71306;BME280;59097;46.858;18.632;2022-11-15T13:30:55;100338.19;;;8.13;100.00
71306;BME280;59097;46.858;18.632;2022-11-15T13:33:31;100337.84;;;7.86;100.00
71306;BME280;59097;46.858;18.632;2022-11-15T13:36:07;100335.25;;;8.08;100.00
71306;BME280;59097;46.858;18.632;2022-11-15T13:38:38;100335.94;;;8.02;100.00
71306;BME280;59097;46.858;18.632;2022-11-15T13:43:44;100334.31;;;8.01;100.00
71306;BME280;59097;46.858;18.632;2022-11-15T13:46:25;100338.16;;;7.91;100.00
71306;BME280;59097;46.858;18.632;2022-11-15T13:51:46;100344.00;;;8.09;100.00
71306;BME280;59097;46.858;18.632;2022-11-15T13:54:22;100339.25;;;8.04;100.00
71306;BME280;59097;46.858;18.632;2022-11-15T13:57:29;100334.34;;;7.93;100.00
71306;BME280;59097;46.858;18.632;2022-11-15T14:00:00;100328.75;;;7.88;100.00
71306;BME280;59097;46.858;18.632;2022-11-15T14:02:35;100322.88;;;8.54;100.00
71306;BME280;59097;46.858;18.632;2022-11-15T14:05:16;100322.88;;;8.54;100.00
71306;BME280;59097;46.858;18.632;2022-11-15T14:08:00;100327.00;;;7.81;100.00
71306;BME280;59097;46.858;18.632;2022-11-15T14:10:35;100320.34;;;7.85;100.00
71306;BME280;59097;46.858;18.632;2022-11-15T14:13:09;100321.72;;;7.81;100.00
71306;BME280;59097;46.858;18.632;2022-11-15T14:15:39;100315.25;;;7.83;100.00
71306;BME280;59097;46.858;18.632;2022-11-15T14:21:14;100316.25;;;8.05;100.00
71306;BME280;59097;46.858;18.632;2022-11-15T14:23:42;100314.87;;;7.94;100.00
71306;BME280;59097;46.858;18.632;2022-11-15T14:28:55;100317.28;;;8.04;100.00
71306;BME280;59097;46.858;18.632;2022-11-15T14:31:24;100309.03;;;8.07;100.00
71306;BME280;59097;46.858;18.632;2022-11-15T14:33:52;100306.38;;;8.07;100.00
71306;BME280;59097;46.858;18.632;2022-11-15T14:36:20;100304.31;;;7.94;100.00
71306;BME280;59097;46.858;18.632;2022-11-15T14:39:24;100300.00;;;8.61;100.00
71306;BME280;59097;46.858;18.632;2022-11-15T14:41:53;100300.00;;;8.61;100.00
71306;BME280;59097;46.858;18.632;2022-11-15T14:44:21;100290.28;;;7.94;100.00
71306;BME280;59097;46.858;18.632;2022-11-15T14:46:49;100286.28;;;7.98;100.00
71306;BME280;59097;46.858;18.632;2022-11-15T14:49:17;100294.37;;;7.96;100.00
71306;BME280;59097;46.858;18.632;2022-11-15T14:51:45;100287.16;;;7.90;100.00
71306;BME280;59097;46.858;18.632;2022-11-15T14:54:13;100293.91;;;7.93;100.00
71306;BME280;59097;46.858;18.632;2022-11-15T14:56:41;100287.09;;;7.98;100.00
71306;BME280;59097;46.858;18.632;2022-11-15T14:59:10;100269.25;;;7.78;100.00
71306;BME280;59097;46.858;18.632;2022-11-15T15:01:38;100285.00;;;7.94;100.00
71306;BME280;59097;46.858;18.632;2022-11-15T15:04:09;100288.75;;;7.99;100.00
71306;BME280;59097;46.858;18.632;2022-11-15T15:06:37;100293.47;;;7.89;100.00
71306;BME280;59097;46.858;18.632;2022-11-15T15:09:19;100288.28;;;7.96;100.00
71306;BME280;59097;46.858;18.632;2022-11-15T15:11:45;100282.72;;;7.91;100.00
71306;BME280;59097;46.858;18.632;2022-11-15T15:14:12;100285.41;;;7.83;100.00
71306;BME280;59097;46.858;18.632;2022-11-15T15:16:40;100292.75;;;7.95;100.00
71306;BME280;59097;46.858;18.632;2022-11-15T15:19:38;100287.09;;;7.98;100.00
71306;BME280;59097;46.858;18.632;2022-11-15T15:22:05;100285.59;;;8.04;100.00
71306;BME280;59097;46.858;18.632;2022-11-15T15:24:37;100278.31;;;8.29;100.00
71306;BME280;59097;46.858;18.632;2022-11-15T15:27:06;100278.31;;;8.29;100.00
71306;BME280;59097;46.858;18.632;2022-11-15T15:29:34;100280.13;;;7.83;100.00
71306;BME280;59097;46.858;18.632;2022-11-15T15:32:02;100279.09;;;7.92;100.00
71306;BME280;59097;46.858;18.632;2022-11-15T15:34:31;100263.59;;;7.89;100.00
71306;BME280;59097;46.858;18.632;2022-11-15T15:37:22;100274.53;;;7.78;100.00
71306;BME280;59097;46.858;18.632;2022-11-15T15:39:51;100265.41;;;7.88;100.00
71306;BME280;59097;46.858;18.632;2022-11-15T15:42:21;100268.28;;;7.79;100.00
71306;BME280;59097;46.858;18.632;2022-11-15T15:44:50;100268.56;;;7.84;100.00